sensor_id;sensor_type;location;lat;lon;timestamp;temperature;humidity
2851;DHT22;1433;49.976;8.342;2023-01-29T00:02:15;0.70;1.00
2851;DHT22;1433;49.976;8.342;2023-01-29T00:04:42;0.80;1.00
2851;DHT22;1433;49.976;8.342;2023-01-29T00:07:08;0.80;1.00
2851;DHT22;1433;49.976;8.342;2023-01-29T00:09:34;0.80;1.00
2851;DHT22;1433;49.976;8.342;2023-01-29T00:12:01;0.80;1.00
2851;DHT22;1433;49.976;8.342;2023-01-29T00:14:28;0.90;99.90
2851;DHT22;1433;49.976;8.342;2023-01-29T00:16:54;0.90;99.90
2851;DHT22;1433;49.976;8.342;2023-01-29T00:19:20;1.00;99.90
2851;DHT22;1433;49.976;8.342;2023-01-29T00:21:46;1.00;1.00
2851;DHT22;1433;49.976;8.342;2023-01-29T00:24:12;0.90;1.00
2851;DHT22;1433;49.976;8.342;2023-01-29T00:26:39;0.90;1.00
2851;DHT22;1433;49.976;8.342;2023-01-29T00:29:05;0.80;1.00
2851;DHT22;1433;49.976;8.342;2023-01-29T00:31:31;0.80;1.00
2851;DHT22;1433;49.976;8.342;2023-01-29T00:33:58;0.80;1.00
2851;DHT22;1433;49.976;8.342;2023-01-29T00:36:25;0.80;99.90
2851;DHT22;1433;49.976;8.342;2023-01-29T00:38:56;0.70;99.90
2851;DHT22;1433;49.976;8.342;2023-01-29T00:41:27;0.70;1.00
2851;DHT22;1433;49.976;8.342;2023-01-29T00:44:17;0.70;1.00
2851;DHT22;1433;49.976;8.342;2023-01-29T00:47:02;0.70;1.00
2851;DHT22;1433;49.976;8.342;2023-01-29T00:49:29;0.70;1.00
2851;DHT22;1433;49.976;8.342;2023-01-29T00:51:57;0.70;1.00
2851;DHT22;1433;49.976;8.342;2023-01-29T00:54:42;0.60;99.90
2851;DHT22;1433;49.976;8.342;2023-01-29T00:57:08;0.70;99.90
2851;DHT22;1433;49.976;8.342;2023-01-29T00:59:34;0.70;99.90
2851;DHT22;1433;49.976;8.342;2023-01-29T01:02:02;0.70;1.00
2851;DHT22;1433;49.976;8.342;2023-01-29T01:04:47;0.60;99.90
2851;DHT22;1433;49.976;8.342;2023-01-29T01:07:13;0.70;99.90
2851;DHT22;1433;49.976;8.342;2023-01-29T01:09:39;0.70;99.90
2851;DHT22;1433;49.976;8.342;2023-01-29T01:12:24;0.60;37.30
2851;DHT22;1433;49.976;8.342;2023-01-29T01:14:50;0.60;1.00
2851;DHT22;1433;49.976;8.342;2023-01-29T01:17:17;0.60;1.00
2851;DHT22;1433;49.976;8.342;2023-01-29T01:19:43;0.60;99.90
2851;DHT22;1433;49.976;8.342;2023-01-29T01:22:10;0.60;99.90
2851;DHT22;1433;49.976;8.342;2023-01-29T01:24:37;0.60;1.00
2851;DHT22;1433;49.976;8.342;2023-01-29T01:27:04;0.60;1.00
2851;DHT22;1433;49.976;8.342;2023-01-29T01:29:31;0.60;1.00
2851;DHT22;1433;49.976;8.342;2023-01-29T01:31:57;0.70;99.90
2851;DHT22;1433;49.976;8.342;2023-01-29T01:34:24;0.70;17.10
2851;DHT22;1433;49.976;8.342;2023-01-29T01:36:52;0.70;1.00
2851;DHT22;1433;49.976;8.342;2023-01-29T01:39:21;0.60;50.90
2851;DHT22;1433;49.976;8.342;2023-01-29T01:41:47;0.60;1.00
2851;DHT22;1433;49.976;8.342;2023-01-29T01:47:27;0.70;99.90
2851;DHT22;1433;49.976;8.342;2023-01-29T01:50:05;0.70;99.90
2851;DHT22;1433;49.976;8.342;2023-01-29T01:52:35;0.70;99.90
2851;DHT22;1433;49.976;8.342;2023-01-29T01:55:05;0.60;99.90
2851;DHT22;1433;49.976;8.342;2023-01-29T01:57:32;0.60;99.90
2851;DHT22;1433;49.976;8.342;2023-01-29T02:00:03;0.50;1.00
2851;DHT22;1433;49.976;8.342;2023-01-29T02:02:39;0.40;1.00
2851;DHT22;1433;49.976;8.342;2023-01-29T02:05:26;0.30;1.00
2851;DHT22;1433;49.976;8.342;2023-01-29T02:08:14;0.20;46.30
2851;DHT22;1433;49.976;8.342;2023-01-29T02:11:00;0.10;91.00
2851;DHT22;1433;49.976;8.342;2023-01-29T02:13:26;0.00;99.90
2851;DHT22;1433;49.976;8.342;2023-01-29T02:15:53;-0.10;1.00
2851;DHT22;1433;49.976;8.342;2023-01-29T02:18:20;-0.20;1.00
2851;DHT22;1433;49.976;8.342;2023-01-29T02:21:13;-0.30;1.00
2851;DHT22;1433;49.976;8.342;2023-01-29T02:24:08;-0.40;99.90
2851;DHT22;1433;49.976;8.342;2023-01-29T02:32:19;-0.40;99.90
2851;DHT22;1433;49.976;8.342;2023-01-29T02:43:46;-0.30;99.90
2851;DHT22;1433;49.976;8.342;2023-01-29T02:48:58;-0.40;99.90
2851;DHT22;1433;49.976;8.342;2023-01-29T02:51:46;-0.30;99.90
2851;DHT22;1433;49.976;8.342;2023-01-29T02:54:21;-0.20;99.90
2851;DHT22;1433;49.976;8.342;2023-01-29T02:57:14;-0.10;22.90
2851;DHT22;1433;49.976;8.342;2023-01-29T02:59:55;0.00;99.90
2851;DHT22;1433;49.976;8.342;2023-01-29T03:02:40;0.00;99.90
2851;DHT22;1433;49.976;8.342;2023-01-29T03:05:11;0.20;99.90
2851;DHT22;1433;49.976;8.342;2023-01-29T03:07:43;0.30;1.00
2851;DHT22;1433;49.976;8.342;2023-01-29T03:10:45;0.40;1.00
2851;DHT22;1433;49.976;8.342;2023-01-29T03:16:37;0.50;99.90
2851;DHT22;1433;49.976;8.342;2023-01-29T03:19:07;0.50;99.90
2851;DHT22;1433;49.976;8.342;2023-01-29T03:21:49;0.50;1.00
2851;DHT22;1433;49.976;8.342;2023-01-29T03:27:43;0.50;1.00
2851;DHT22;1433;49.976;8.342;2023-01-29T03:30:35;0.50;99.90
2851;DHT22;1433;49.976;8.342;2023-01-29T03:33:30;0.50;1.00
2851;DHT22;1433;49.976;8.342;2023-01-29T03:36:07;0.50;1.00
2851;DHT22;1433;49.976;8.342;2023-01-29T03:38:32;0.50;99.90
2851;DHT22;1433;49.976;8.342;2023-01-29T03:41:22;0.50;99.90
2851;DHT22;1433;49.976;8.342;2023-01-29T03:44:11;0.60;99.90
2851;DHT22;1433;49.976;8.342;2023-01-29T03:55:05;0.60;99.90
2851;DHT22;1433;49.976;8.342;2023-01-29T03:57:39;0.50;99.90
2851;DHT22;1433;49.976;8.342;2023-01-29T04:00:18;0.50;99.90
2851;DHT22;1433;49.976;8.342;2023-01-29T04:05:53;0.40;1.00
2851;DHT22;1433;49.976;8.342;2023-01-29T04:08:28;0.30;1.00
2851;DHT22;1433;49.976;8.342;2023-01-29T04:10:59;0.30;1.00
2851;DHT22;1433;49.976;8.342;2023-01-29T04:13:30;0.30;1.00
2851;DHT22;1433;49.976;8.342;2023-01-29T04:16:00;0.30;99.90
2851;DHT22;1433;49.976;8.342;2023-01-29T04:18:30;0.30;99.90
2851;DHT22;1433;49.976;8.342;2023-01-29T04:21:04;0.30;99.90
2851;DHT22;1433;49.976;8.342;2023-01-29T04:23:33;0.20;99.90
2851;DHT22;1433;49.976;8.342;2023-01-29T04:26:13;0.20;99.90
2851;DHT22;1433;49.976;8.342;2023-01-29T04:32:14;-0.10;1.00
2851;DHT22;1433;49.976;8.342;2023-01-29T04:37:43;-0.20;99.90
2851;DHT22;1433;49.976;8.342;2023-01-29T04:40:22;-0.20;1.00
2851;DHT22;1433;49.976;8.342;2023-01-29T04:51:36;-0.50;1.00
2851;DHT22;1433;49.976;8.342;2023-01-29T04:59:40;-0.10;99.90
2851;DHT22;1433;49.976;8.342;2023-01-29T05:02:08;-0.10;99.90
2851;DHT22;1433;49.976;8.342;2023-01-29T05:04:38;-0.10;99.90
2851;DHT22;1433;49.976;8.342;2023-01-29T05:07:09;0.00;99.90
2851;DHT22;1433;49.976;8.342;2023-01-29T05:09:38;0.00;99.90
2851;DHT22;1433;49.976;8.342;2023-01-29T05:12:06;-0.10;1.00
2851;DHT22;1433;49.976;8.342;2023-01-29T05:14:34;0.00;1.00
2851;DHT22;1433;49.976;8.342;2023-01-29T05:17:06;0.00;1.00
2851;DHT22;1433;49.976;8.342;2023-01-29T05:19:34;0.00;1.00
2851;DHT22;1433;49.976;8.342;2023-01-29T05:22:03;0.00;1.00
2851;DHT22;1433;49.976;8.342;2023-01-29T05:24:30;0.00;1.00
2851;DHT22;1433;49.976;8.342;2023-01-29T05:26:56;0.00;99.90
2851;DHT22;1433;49.976;8.342;2023-01-29T05:29:45;0.00;1.00
2851;DHT22;1433;49.976;8.342;2023-01-29T05:32:12;0.10;99.90
2851;DHT22;1433;49.976;8.342;2023-01-29T05:34:39;0.10;99.90
2851;DHT22;1433;49.976;8.342;2023-01-29T05:37:05;0.10;1.00
2851;DHT22;1433;49.976;8.342;2023-01-29T05:39:31;0.10;48.60
2851;DHT22;1433;49.976;8.342;2023-01-29T05:41:58;0.20;99.90
2851;DHT22;1433;49.976;8.342;2023-01-29T05:44:24;0.20;1.00
2851;DHT22;1433;49.976;8.342;2023-01-29T05:46:50;0.30;1.00
2851;DHT22;1433;49.976;8.342;2023-01-29T05:49:17;0.20;99.90
2851;DHT22;1433;49.976;8.342;2023-01-29T05:51:45;0.10;1.00
2851;DHT22;1433;49.976;8.342;2023-01-29T05:54:12;0.10;41.90
2851;DHT22;1433;49.976;8.342;2023-01-29T05:56:39;0.10;99.90
2851;DHT22;1433;49.976;8.342;2023-01-29T05:59:05;0.10;1.00
2851;DHT22;1433;49.976;8.342;2023-01-29T06:01:32;0.10;1.00
2851;DHT22;1433;49.976;8.342;2023-01-29T06:03:58;0.00;1.00
2851;DHT22;1433;49.976;8.342;2023-01-29T06:06:24;0.00;99.90
2851;DHT22;1433;49.976;8.342;2023-01-29T06:08:51;-0.10;1.00
2851;DHT22;1433;49.976;8.342;2023-01-29T06:11:17;0.00;99.90
2851;DHT22;1433;49.976;8.342;2023-01-29T06:13:44;0.00;99.90
2851;DHT22;1433;49.976;8.342;2023-01-29T06:16:12;-0.10;1.00
2851;DHT22;1433;49.976;8.342;2023-01-29T06:18:39;-0.10;1.00
2851;DHT22;1433;49.976;8.342;2023-01-29T06:21:08;-0.10;99.90
2851;DHT22;1433;49.976;8.342;2023-01-29T06:23:37;-0.20;1.00
2851;DHT22;1433;49.976;8.342;2023-01-29T06:26:07;-0.20;1.00
2851;DHT22;1433;49.976;8.342;2023-01-29T06:28:35;-0.20;2.80
2851;DHT22;1433;49.976;8.342;2023-01-29T06:31:03;-0.20;1.00
2851;DHT22;1433;49.976;8.342;2023-01-29T06:33:31;-0.20;1.00
2851;DHT22;1433;49.976;8.342;2023-01-29T06:35:59;-0.20;99.90
2851;DHT22;1433;49.976;8.342;2023-01-29T06:38:27;-0.10;99.90
2851;DHT22;1433;49.976;8.342;2023-01-29T06:40:54;-0.20;1.00
2851;DHT22;1433;49.976;8.342;2023-01-29T06:43:21;-0.10;99.90
2851;DHT22;1433;49.976;8.342;2023-01-29T06:45:56;-0.10;99.90
2851;DHT22;1433;49.976;8.342;2023-01-29T06:48:23;-0.10;1.00
2851;DHT22;1433;49.976;8.342;2023-01-29T06:50:50;-0.20;99.90
2851;DHT22;1433;49.976;8.342;2023-01-29T06:53:18;-0.10;88.50
2851;DHT22;1433;49.976;8.342;2023-01-29T06:55:50;-0.10;94.80
2851;DHT22;1433;49.976;8.342;2023-01-29T06:58:17;-0.10;1.00
2851;DHT22;1433;49.976;8.342;2023-01-29T07:00:43;-0.20;1.00
2851;DHT22;1433;49.976;8.342;2023-01-29T07:03:10;-0.20;99.90
2851;DHT22;1433;49.976;8.342;2023-01-29T07:05:36;-0.20;1.00
2851;DHT22;1433;49.976;8.342;2023-01-29T07:08:03;-0.20;1.00
2851;DHT22;1433;49.976;8.342;2023-01-29T07:10:30;-0.20;1.00
2851;DHT22;1433;49.976;8.342;2023-01-29T07:13:00;-0.10;54.60
2851;DHT22;1433;49.976;8.342;2023-01-29T07:15:27;-0.10;99.90
2851;DHT22;1433;49.976;8.342;2023-01-29T07:18:01;0.00;1.00
2851;DHT22;1433;49.976;8.342;2023-01-29T07:20:30;-0.10;1.00
2851;DHT22;1433;49.976;8.342;2023-01-29T07:22:57;0.00;1.00
2851;DHT22;1433;49.976;8.342;2023-01-29T07:25:24;0.10;1.00
2851;DHT22;1433;49.976;8.342;2023-01-29T07:27:50;0.10;99.90
2851;DHT22;1433;49.976;8.342;2023-01-29T07:30:17;0.20;99.90
2851;DHT22;1433;49.976;8.342;2023-01-29T07:32:43;0.20;99.90
2851;DHT22;1433;49.976;8.342;2023-01-29T07:35:09;0.20;96.30
2851;DHT22;1433;49.976;8.342;2023-01-29T07:37:36;0.20;99.90
2851;DHT22;1433;49.976;8.342;2023-01-29T07:40:03;0.20;99.90
2851;DHT22;1433;49.976;8.342;2023-01-29T07:42:31;0.10;1.00
2851;DHT22;1433;49.976;8.342;2023-01-29T07:44:58;0.10;99.90
2851;DHT22;1433;49.976;8.342;2023-01-29T07:47:24;0.10;57.90
2851;DHT22;1433;49.976;8.342;2023-01-29T07:49:50;0.10;1.00
2851;DHT22;1433;49.976;8.342;2023-01-29T07:52:17;0.10;1.00
2851;DHT22;1433;49.976;8.342;2023-01-29T07:54:43;0.10;1.00
2851;DHT22;1433;49.976;8.342;2023-01-29T07:57:09;0.20;1.00
2851;DHT22;1433;49.976;8.342;2023-01-29T07:59:36;0.30;1.00
2851;DHT22;1433;49.976;8.342;2023-01-29T08:02:02;0.40;1.00
2851;DHT22;1433;49.976;8.342;2023-01-29T08:04:30;0.40;99.90
2851;DHT22;1433;49.976;8.342;2023-01-29T08:06:56;0.50;83.60
2851;DHT22;1433;49.976;8.342;2023-01-29T08:09:23;0.50;32.20
2851;DHT22;1433;49.976;8.342;2023-01-29T08:11:49;0.50;1.00
2851;DHT22;1433;49.976;8.342;2023-01-29T08:14:16;0.60;1.00
2851;DHT22;1433;49.976;8.342;2023-01-29T08:16:42;0.50;1.00
2851;DHT22;1433;49.976;8.342;2023-01-29T08:19:08;0.60;1.00
2851;DHT22;1433;49.976;8.342;2023-01-29T08:21:34;0.60;1.00
2851;DHT22;1433;49.976;8.342;2023-01-29T08:24:01;0.50;1.00
2851;DHT22;1433;49.976;8.342;2023-01-29T08:26:27;0.50;99.90
2851;DHT22;1433;49.976;8.342;2023-01-29T08:28:54;0.50;99.90
2851;DHT22;1433;49.976;8.342;2023-01-29T08:31:20;0.60;99.90
2851;DHT22;1433;49.976;8.342;2023-01-29T08:33:47;0.60;1.00
2851;DHT22;1433;49.976;8.342;2023-01-29T08:36:14;0.70;99.90
2851;DHT22;1433;49.976;8.342;2023-01-29T08:38:41;0.60;1.00
2851;DHT22;1433;49.976;8.342;2023-01-29T08:41:07;0.50;99.90
2851;DHT22;1433;49.976;8.342;2023-01-29T08:43:34;0.60;99.90
2851;DHT22;1433;49.976;8.342;2023-01-29T08:46:05;0.90;99.90
2851;DHT22;1433;49.976;8.342;2023-01-29T08:48:33;1.00;99.90
2851;DHT22;1433;49.976;8.342;2023-01-29T08:51:00;1.00;1.00
2851;DHT22;1433;49.976;8.342;2023-01-29T08:53:28;0.90;1.00
2851;DHT22;1433;49.976;8.342;2023-01-29T08:55:54;1.00;1.00
2851;DHT22;1433;49.976;8.342;2023-01-29T08:58:20;1.00;1.00
2851;DHT22;1433;49.976;8.342;2023-01-29T09:00:47;0.60;1.00
2851;DHT22;1433;49.976;8.342;2023-01-29T09:03:13;0.50;1.00
2851;DHT22;1433;49.976;8.342;2023-01-29T09:05:40;0.50;99.90
2851;DHT22;1433;49.976;8.342;2023-01-29T09:08:08;0.40;99.90
2851;DHT22;1433;49.976;8.342;2023-01-29T09:10:35;0.30;99.90
2851;DHT22;1433;49.976;8.342;2023-01-29T09:13:02;0.20;1.00
2851;DHT22;1433;49.976;8.342;2023-01-29T09:15:29;0.20;1.00
2851;DHT22;1433;49.976;8.342;2023-01-29T09:17:56;0.20;99.90
2851;DHT22;1433;49.976;8.342;2023-01-29T09:20:22;0.20;1.00
2851;DHT22;1433;49.976;8.342;2023-01-29T09:22:49;0.20;1.00
2851;DHT22;1433;49.976;8.342;2023-01-29T09:25:17;0.30;1.00
2851;DHT22;1433;49.976;8.342;2023-01-29T09:27:43;0.40;1.00
2851;DHT22;1433;49.976;8.342;2023-01-29T09:30:10;0.40;1.00
2851;DHT22;1433;49.976;8.342;2023-01-29T09:32:37;0.50;1.00
2851;DHT22;1433;49.976;8.342;2023-01-29T09:35:04;0.50;99.90
2851;DHT22;1433;49.976;8.342;2023-01-29T09:37:31;0.50;1.00
2851;DHT22;1433;49.976;8.342;2023-01-29T09:39:57;0.50;99.90
2851;DHT22;1433;49.976;8.342;2023-01-29T09:42:26;0.70;1.00
2851;DHT22;1433;49.976;8.342;2023-01-29T09:47:34;1.00;1.00
2851;DHT22;1433;49.976;8.342;2023-01-29T09:50:07;1.00;1.00
2851;DHT22;1433;49.976;8.342;2023-01-29T09:55:39;0.80;1.00
2851;DHT22;1433;49.976;8.342;2023-01-29T09:58:11;0.80;1.00
2851;DHT22;1433;49.976;8.342;2023-01-29T10:09:27;1.10;1.00
2851;DHT22;1433;49.976;8.342;2023-01-29T10:27:15;1.40;1.00
2851;DHT22;1433;49.976;8.342;2023-01-29T10:29:43;1.60;1.00
2851;DHT22;1433;49.976;8.342;2023-01-29T10:32:14;1.80;99.90
2851;DHT22;1433;49.976;8.342;2023-01-29T10:34:50;1.90;99.90
2851;DHT22;1433;49.976;8.342;2023-01-29T10:37:21;2.10;99.90
2851;DHT22;1433;49.976;8.342;2023-01-29T10:39:49;2.20;54.30
2851;DHT22;1433;49.976;8.342;2023-01-29T11:02:26;1.70;79.70
2851;DHT22;1433;49.976;8.342;2023-01-29T11:04:52;1.50;1.00
2851;DHT22;1433;49.976;8.342;2023-01-29T11:07:20;1.50;99.90
2851;DHT22;1433;49.976;8.342;2023-01-29T11:09:55;1.70;99.90
2851;DHT22;1433;49.976;8.342;2023-01-29T11:12:29;2.00;1.00
2851;DHT22;1433;49.976;8.342;2023-01-29T11:20:37;2.40;1.00
2851;DHT22;1433;49.976;8.342;2023-01-29T11:23:03;2.10;1.00
2851;DHT22;1433;49.976;8.342;2023-01-29T11:25:30;2.20;1.00
2851;DHT22;1433;49.976;8.342;2023-01-29T11:28:01;2.30;1.00
2851;DHT22;1433;49.976;8.342;2023-01-29T11:30:37;1.80;1.00
2851;DHT22;1433;49.976;8.342;2023-01-29T11:35:49;1.30;99.90
2851;DHT22;1433;49.976;8.342;2023-01-29T11:38:27;1.30;99.90
2851;DHT22;1433;49.976;8.342;2023-01-29T11:40:51;1.20;99.90
2851;DHT22;1433;49.976;8.342;2023-01-29T11:43:28;1.30;99.90
2851;DHT22;1433;49.976;8.342;2023-01-29T11:45:52;1.40;99.90
2851;DHT22;1433;49.976;8.342;2023-01-29T11:48:29;1.40;99.90
2851;DHT22;1433;49.976;8.342;2023-01-29T11:50:54;1.40;99.90
2851;DHT22;1433;49.976;8.342;2023-01-29T11:53:40;1.70;99.90
2851;DHT22;1433;49.976;8.342;2023-01-29T11:59:00;2.00;1.00
2851;DHT22;1433;49.976;8.342;2023-01-29T12:01:38;1.80;4.70
2851;DHT22;1433;49.976;8.342;2023-01-29T12:04:16;1.70;1.00
2851;DHT22;1433;49.976;8.342;2023-01-29T12:06:50;1.90;1.00
2851;DHT22;1433;49.976;8.342;2023-01-29T12:09:23;1.90;1.00
2851;DHT22;1433;49.976;8.342;2023-01-29T12:11:52;2.00;1.00
2851;DHT22;1433;49.976;8.342;2023-01-29T12:14:29;1.60;47.10
2851;DHT22;1433;49.976;8.342;2023-01-29T12:19:46;1.80;99.90
2851;DHT22;1433;49.976;8.342;2023-01-29T12:22:55;1.80;1.00
2851;DHT22;1433;49.976;8.342;2023-01-29T12:36:31;1.40;1.00
2851;DHT22;1433;49.976;8.342;2023-01-29T12:38:57;1.60;1.00
2851;DHT22;1433;49.976;8.342;2023-01-29T12:41:37;1.60;99.90
2851;DHT22;1433;49.976;8.342;2023-01-29T12:46:55;2.10;1.00
2851;DHT22;1433;49.976;8.342;2023-01-29T12:49:25;2.30;59.90
2851;DHT22;1433;49.976;8.342;2023-01-29T12:52:14;2.20;15.00
2851;DHT22;1433;49.976;8.342;2023-01-29T12:55:12;2.10;17.40
2851;DHT22;1433;49.976;8.342;2023-01-29T13:00:35;3.00;1.00
2851;DHT22;1433;49.976;8.342;2023-01-29T13:05:56;3.40;56.30
2851;DHT22;1433;49.976;8.342;2023-01-29T13:08:36;3.30;99.90
2851;DHT22;1433;49.976;8.342;2023-01-29T13:11:24;3.30;99.90
2851;DHT22;1433;49.976;8.342;2023-01-29T13:14:25;3.40;99.90
2851;DHT22;1433;49.976;8.342;2023-01-29T13:19:50;2.20;1.00
2851;DHT22;1433;49.976;8.342;2023-01-29T13:22:24;2.20;1.00
2851;DHT22;1433;49.976;8.342;2023-01-29T13:24:52;2.50;1.00
2851;DHT22;1433;49.976;8.342;2023-01-29T13:27:28;2.60;1.00
2851;DHT22;1433;49.976;8.342;2023-01-29T13:29:56;3.00;1.00
2851;DHT22;1433;49.976;8.342;2023-01-29T13:32:27;3.20;1.00
2851;DHT22;1433;49.976;8.342;2023-01-29T13:35:11;3.00;1.00
2851;DHT22;1433;49.976;8.342;2023-01-29T13:37:40;3.10;1.00
2851;DHT22;1433;49.976;8.342;2023-01-29T13:40:18;3.30;1.00
2851;DHT22;1433;49.976;8.342;2023-01-29T13:42:46;4.10;1.00
2851;DHT22;1433;49.976;8.342;2023-01-29T13:45:19;4.30;99.90
2851;DHT22;1433;49.976;8.342;2023-01-29T13:47:47;4.50;1.00
2851;DHT22;1433;49.976;8.342;2023-01-29T13:50:23;4.90;1.00
2851;DHT22;1433;49.976;8.342;2023-01-29T13:52:58;5.00;1.00
2851;DHT22;1433;49.976;8.342;2023-01-29T13:55:30;5.20;1.00
2851;DHT22;1433;49.976;8.342;2023-01-29T13:58:12;5.20;1.00
2851;DHT22;1433;49.976;8.342;2023-01-29T14:05:56;4.70;1.00
2851;DHT22;1433;49.976;8.342;2023-01-29T14:13:46;6.20;1.00
2851;DHT22;1433;49.976;8.342;2023-01-29T14:18:59;6.20;1.00
2851;DHT22;1433;49.976;8.342;2023-01-29T14:21:29;5.80;1.00
2851;DHT22;1433;49.976;8.342;2023-01-29T14:24:16;5.80;1.00
2851;DHT22;1433;49.976;8.342;2023-01-29T14:26:47;5.30;1.00
2851;DHT22;1433;49.976;8.342;2023-01-29T14:29:21;5.70;1.00
2851;DHT22;1433;49.976;8.342;2023-01-29T14:32:14;5.50;1.00
2851;DHT22;1433;49.976;8.342;2023-01-29T14:35:00;5.00;1.00
2851;DHT22;1433;49.976;8.342;2023-01-29T14:37:39;4.40;1.00
2851;DHT22;1433;49.976;8.342;2023-01-29T14:45:31;4.10;1.00
2851;DHT22;1433;49.976;8.342;2023-01-29T14:50:57;4.30;1.00
2851;DHT22;1433;49.976;8.342;2023-01-29T14:53:40;4.30;1.00
2851;DHT22;1433;49.976;8.342;2023-01-29T14:56:18;4.10;1.00
2851;DHT22;1433;49.976;8.342;2023-01-29T14:58:52;3.80;1.00
2851;DHT22;1433;49.976;8.342;2023-01-29T15:01:29;3.80;1.00
2851;DHT22;1433;49.976;8.342;2023-01-29T15:04:19;3.80;1.00
2851;DHT22;1433;49.976;8.342;2023-01-29T15:10:03;4.30;1.00
2851;DHT22;1433;49.976;8.342;2023-01-29T15:15:31;3.90;1.00
2851;DHT22;1433;49.976;8.342;2023-01-29T15:18:00;3.40;1.00
2851;DHT22;1433;49.976;8.342;2023-01-29T15:20:41;3.30;1.00
2851;DHT22;1433;49.976;8.342;2023-01-29T15:23:26;3.10;1.00
2851;DHT22;1433;49.976;8.342;2023-01-29T15:26:00;3.00;43.80
2851;DHT22;1433;49.976;8.342;2023-01-29T15:28:29;2.70;99.90
2851;DHT22;1433;49.976;8.342;2023-01-29T15:30:59;2.60;99.90
2851;DHT22;1433;49.976;8.342;2023-01-29T15:33:27;2.40;99.90
2851;DHT22;1433;49.976;8.342;2023-01-29T15:35:56;2.30;1.00
2851;DHT22;1433;49.976;8.342;2023-01-29T15:38:24;2.20;1.00
2851;DHT22;1433;49.976;8.342;2023-01-29T15:41:02;2.10;1.00
2851;DHT22;1433;49.976;8.342;2023-01-29T15:43:35;2.00;1.00
2851;DHT22;1433;49.976;8.342;2023-01-29T15:46:14;1.90;1.00
2851;DHT22;1433;49.976;8.342;2023-01-29T15:48:39;1.90;1.00
2851;DHT22;1433;49.976;8.342;2023-01-29T15:51:09;1.80;1.00
2851;DHT22;1433;49.976;8.342;2023-01-29T15:53:43;1.70;3.20
2851;DHT22;1433;49.976;8.342;2023-01-29T15:56:16;1.70;99.90
2851;DHT22;1433;49.976;8.342;2023-01-29T15:58:48;1.60;99.90
2851;DHT22;1433;49.976;8.342;2023-01-29T16:01:16;1.50;99.90
2851;DHT22;1433;49.976;8.342;2023-01-29T16:03:43;1.50;99.90
2851;DHT22;1433;49.976;8.342;2023-01-29T16:06:10;1.50;1.00
2851;DHT22;1433;49.976;8.342;2023-01-29T16:08:37;1.40;1.00
2851;DHT22;1433;49.976;8.342;2023-01-29T16:11:05;1.30;1.00
2851;DHT22;1433;49.976;8.342;2023-01-29T16:13:38;1.30;1.00
2851;DHT22;1433;49.976;8.342;2023-01-29T16:16:20;1.20;1.00
2851;DHT22;1433;49.976;8.342;2023-01-29T16:18:51;1.20;99.90
2851;DHT22;1433;49.976;8.342;2023-01-29T16:21:36;1.10;99.90
2851;DHT22;1433;49.976;8.342;2023-01-29T16:24:11;1.00;1.00
2851;DHT22;1433;49.976;8.342;2023-01-29T16:26:45;0.90;1.00
2851;DHT22;1433;49.976;8.342;2023-01-29T16:29:19;0.90;1.00
2851;DHT22;1433;49.976;8.342;2023-01-29T16:31:51;0.80;24.40
2851;DHT22;1433;49.976;8.342;2023-01-29T16:34:23;0.70;99.90
2851;DHT22;1433;49.976;8.342;2023-01-29T16:36:50;0.60;99.90
2851;DHT22;1433;49.976;8.342;2023-01-29T16:39:20;0.60;1.00
2851;DHT22;1433;49.976;8.342;2023-01-29T16:47:37;0.40;1.00
2851;DHT22;1433;49.976;8.342;2023-01-29T16:53:14;0.30;1.00
2851;DHT22;1433;49.976;8.342;2023-01-29T16:55:46;0.20;1.00
2851;DHT22;1433;49.976;8.342;2023-01-29T16:58:17;0.20;81.20
2851;DHT22;1433;49.976;8.342;2023-01-29T17:00:55;0.10;99.90
2851;DHT22;1433;49.976;8.342;2023-01-29T17:03:20;0.10;99.90
2851;DHT22;1433;49.976;8.342;2023-01-29T17:05:49;0.10;99.90
2851;DHT22;1433;49.976;8.342;2023-01-29T17:08:22;0.20;99.90
2851;DHT22;1433;49.976;8.342;2023-01-29T17:10:57;0.20;99.90
2851;DHT22;1433;49.976;8.342;2023-01-29T17:13:41;0.10;99.90
2851;DHT22;1433;49.976;8.342;2023-01-29T17:18:53;0.10;99.90
2851;DHT22;1433;49.976;8.342;2023-01-29T17:21:19;0.10;99.90
2851;DHT22;1433;49.976;8.342;2023-01-29T17:23:46;0.10;99.90
2851;DHT22;1433;49.976;8.342;2023-01-29T17:26:13;0.10;99.90
2851;DHT22;1433;49.976;8.342;2023-01-29T17:28:40;0.10;99.90
2851;DHT22;1433;49.976;8.342;2023-01-29T17:31:06;0.20;99.90
2851;DHT22;1433;49.976;8.342;2023-01-29T17:33:34;0.20;99.90
2851;DHT22;1433;49.976;8.342;2023-01-29T17:36:03;0.20;99.90
2851;DHT22;1433;49.976;8.342;2023-01-29T17:38:30;0.10;99.90
2851;DHT22;1433;49.976;8.342;2023-01-29T17:41:01;0.10;99.90
2851;DHT22;1433;49.976;8.342;2023-01-29T17:43:46;0.10;99.90
2851;DHT22;1433;49.976;8.342;2023-01-29T17:46:14;0.00;99.90
2851;DHT22;1433;49.976;8.342;2023-01-29T17:48:41;0.00;99.90
2851;DHT22;1433;49.976;8.342;2023-01-29T17:51:14;0.10;99.90
2851;DHT22;1433;49.976;8.342;2023-01-29T17:53:42;0.10;99.90
2851;DHT22;1433;49.976;8.342;2023-01-29T17:56:14;0.10;99.90
2851;DHT22;1433;49.976;8.342;2023-01-29T17:58:42;0.10;99.90
2851;DHT22;1433;49.976;8.342;2023-01-29T18:01:08;0.10;99.90
2851;DHT22;1433;49.976;8.342;2023-01-29T18:03:34;0.00;99.90
2851;DHT22;1433;49.976;8.342;2023-01-29T18:06:01;0.00;99.90
2851;DHT22;1433;49.976;8.342;2023-01-29T18:08:29;0.00;99.90
2851;DHT22;1433;49.976;8.342;2023-01-29T18:11:00;-0.10;99.90
2851;DHT22;1433;49.976;8.342;2023-01-29T18:13:26;-0.10;99.90
2851;DHT22;1433;49.976;8.342;2023-01-29T18:15:53;0.00;99.90
2851;DHT22;1433;49.976;8.342;2023-01-29T18:18:22;-0.10;99.90
2851;DHT22;1433;49.976;8.342;2023-01-29T18:20:49;-0.10;99.90
2851;DHT22;1433;49.976;8.342;2023-01-29T18:23:16;-0.10;99.90
2851;DHT22;1433;49.976;8.342;2023-01-29T18:25:42;-0.10;99.90
2851;DHT22;1433;49.976;8.342;2023-01-29T18:28:12;-0.10;99.90
2851;DHT22;1433;49.976;8.342;2023-01-29T18:30:42;-0.10;99.90
2851;DHT22;1433;49.976;8.342;2023-01-29T18:33:10;-0.10;99.90
2851;DHT22;1433;49.976;8.342;2023-01-29T18:35:37;-0.10;99.90
2851;DHT22;1433;49.976;8.342;2023-01-29T18:38:03;-0.20;99.90
2851;DHT22;1433;49.976;8.342;2023-01-29T18:40:30;-0.20;99.90
2851;DHT22;1433;49.976;8.342;2023-01-29T18:42:57;-0.10;99.90
2851;DHT22;1433;49.976;8.342;2023-01-29T18:45:27;-0.10;99.90
2851;DHT22;1433;49.976;8.342;2023-01-29T18:47:54;-0.10;99.90
2851;DHT22;1433;49.976;8.342;2023-01-29T18:50:21;0.00;99.90
2851;DHT22;1433;49.976;8.342;2023-01-29T18:52:48;0.00;99.90
2851;DHT22;1433;49.976;8.342;2023-01-29T18:55:14;0.00;99.90
2851;DHT22;1433;49.976;8.342;2023-01-29T18:57:44;-0.10;99.90
2851;DHT22;1433;49.976;8.342;2023-01-29T19:00:32;-0.10;99.90
2851;DHT22;1433;49.976;8.342;2023-01-29T19:02:50;-0.10;99.90
2851;DHT22;1433;49.976;8.342;2023-01-29T19:05:32;-0.10;99.90
2851;DHT22;1433;49.976;8.342;2023-01-29T19:08:01;-0.10;99.90
2851;DHT22;1433;49.976;8.342;2023-01-29T19:10:39;0.00;99.90
2851;DHT22;1433;49.976;8.342;2023-01-29T19:13:06;0.00;99.90
2851;DHT22;1433;49.976;8.342;2023-01-29T19:15:33;-0.10;99.90
2851;DHT22;1433;49.976;8.342;2023-01-29T19:18:00;-0.10;99.90
2851;DHT22;1433;49.976;8.342;2023-01-29T19:20:27;-0.10;99.90
2851;DHT22;1433;49.976;8.342;2023-01-29T19:22:53;-0.10;99.90
2851;DHT22;1433;49.976;8.342;2023-01-29T19:25:20;-0.10;99.90
2851;DHT22;1433;49.976;8.342;2023-01-29T19:27:46;-0.10;99.90
2851;DHT22;1433;49.976;8.342;2023-01-29T19:30:13;-0.20;99.90
2851;DHT22;1433;49.976;8.342;2023-01-29T19:32:39;-0.10;99.90
2851;DHT22;1433;49.976;8.342;2023-01-29T19:35:06;-0.10;99.90
2851;DHT22;1433;49.976;8.342;2023-01-29T19:37:33;-0.10;99.90
2851;DHT22;1433;49.976;8.342;2023-01-29T19:39:59;-0.20;99.90
2851;DHT22;1433;49.976;8.342;2023-01-29T19:42:25;-0.20;99.90
2851;DHT22;1433;49.976;8.342;2023-01-29T19:44:52;-0.20;99.90
2851;DHT22;1433;49.976;8.342;2023-01-29T19:47:19;-0.20;99.90
2851;DHT22;1433;49.976;8.342;2023-01-29T19:49:45;-0.20;99.90
2851;DHT22;1433;49.976;8.342;2023-01-29T19:52:12;-0.20;99.90